Time;durP1;ratioP1;P1;durP2;ratioP2;P2;SDS_P1;SDS_P2;PMS_P1;PMS_P2;Temp;Humidity;BMP_temperature;BMP_pressure;BME280_temperature;BME280_humidity;BME280_pressure;Samples;Min_cycle;Max_cycle;Signal;HPM_P1;HPM_P2
2023/05/10 00:01:42;;;;;;;2.73;1.60;;;13.90;99.90;;;;;;4973040;28;20184;-76
2023/05/10 00:04:08;;;;;;;1.97;1.70;;;13.90;99.90;;;;;;4972010;28;20634;-77
2023/05/10 00:06:33;;;;;;;1.33;1.23;;;13.90;99.90;;;;;;4970439;28;20752;-77
2023/05/10 00:08:59;;;;;;;1.40;1.27;;;13.80;99.90;;;;;;4969994;28;20200;-77
2023/05/10 00:11:24;;;;;;;1.30;1.20;;;13.70;99.90;;;;;;4970237;28;20686;-77
2023/05/10 00:13:50;;;;;;;1.30;1.20;;;13.70;99.90;;;;;;4972947;28;20173;-77
2023/05/10 00:16:15;;;;;;;1.63;1.13;;;13.70;99.90;;;;;;4973065;28;20196;-77
2023/05/10 00:18:41;;;;;;;0.93;0.90;;;13.70;99.90;;;;;;4972864;28;20211;-77
2023/05/10 00:21:06;;;;;;;1.00;0.93;;;13.60;99.90;;;;;;4973064;28;20541;-78
2023/05/10 00:23:32;;;;;;;1.93;1.10;;;13.60;99.90;;;;;;4971460;28;20184;-77
2023/05/10 00:25:57;;;;;;;1.93;1.10;;;13.60;99.90;;;;;;4973499;28;20176;-77
2023/05/10 00:28:23;;;;;;;0.90;0.70;;;13.60;99.90;;;;;;4972971;28;20208;-78
2023/05/10 00:30:48;;;;;;;1.53;1.43;;;13.70;99.90;;;;;;4970577;28;20203;-78
2023/05/10 00:33:14;;;;;;;1.10;1.10;;;13.70;99.90;;;;;;4981059;28;20176;-78
2023/05/10 00:35:40;;;;;;;1.80;0.70;;;13.70;99.90;;;;;;4972078;28;20214;-78
2023/05/10 00:38:05;;;;;;;1.10;1.07;;;13.60;99.90;;;;;;4971311;28;20196;-78
2023/05/10 00:40:31;;;;;;;1.57;1.47;;;13.50;99.90;;;;;;4972026;28;20712;-78
2023/05/10 00:42:58;;;;;;;2.27;0.77;;;13.40;99.90;;;;;;4971574;28;20176;-78
2023/05/10 00:45:24;;;;;;;1.20;1.10;;;13.50;99.90;;;;;;4971561;28;20279;-78
2023/05/10 00:47:49;;;;;;;2.70;0.77;;;13.50;99.90;;;;;;4971311;28;21012;-78
2023/05/10 00:50:15;;;;;;;1.27;0.60;;;13.40;99.90;;;;;;4972490;28;20188;-78
2023/05/10 00:52:42;;;;;;;5.03;0.70;;;13.40;99.90;;;;;;4972267;28;20180;-78
2023/05/10 00:55:11;;;;;;;0.70;0.60;;;13.30;99.90;;;;;;4975654;28;20180;-78
2023/05/10 00:57:36;;;;;;;1.17;0.97;;;13.30;99.90;;;;;;4984608;28;20462;-78
2023/05/10 01:00:03;;;;;;;1.63;0.60;;;13.40;99.90;;;;;;4983343;28;20435;-78
2023/05/10 01:02:28;;;;;;;1.23;0.60;;;13.50;99.90;;;;;;4972443;28;20214;-77
2023/05/10 01:04:54;;;;;;;1.63;0.60;;;13.30;99.90;;;;;;4960421;28;20530;-78
2023/05/10 01:07:20;;;;;;;1.77;0.60;;;13.30;99.90;;;;;;4989175;28;20203;-79
2023/05/10 01:09:46;;;;;;;2.93;0.57;;;13.20;99.90;;;;;;4980211;28;20521;-79
2023/05/10 01:12:12;;;;;;;1.00;0.73;;;13.20;99.90;;;;;;4973979;28;20689;-78
2023/05/10 01:14:37;;;;;;;1.03;0.93;;;13.30;99.90;;;;;;4967577;28;20435;-79
2023/05/10 01:17:05;;;;;;;1.10;0.50;;;13.30;99.90;;;;;;4978016;28;20298;-79
2023/05/10 01:19:31;;;;;;;0.73;0.60;;;13.30;99.90;;;;;;4978746;28;20176;-79
2023/05/10 01:22:05;;;;;;;0.93;0.60;;;13.20;99.90;;;;;;4970839;28;20453;-79
2023/05/10 01:24:37;;;;;;;0.80;0.50;;;13.30;99.90;;;;;;4969306;28;20450;-78
2023/05/10 01:27:24;;;;;;;1.37;0.60;;;13.40;99.90;;;;;;4973206;28;20491;-79
2023/05/10 01:30:24;;;;;;;0.90;0.60;;;13.40;99.90;;;;;;4968692;28;20550;-78
2023/05/10 01:33:28;;;;;;;0.70;0.70;;;13.40;99.90;;;;;;4968875;28;20819;-79
2023/05/10 01:36:25;;;;;;;0.70;0.70;;;13.40;99.90;;;;;;4969863;28;20431;-79
2023/05/10 01:38:57;;;;;;;2.30;1.03;;;13.30;99.90;;;;;;4969979;28;20462;-79
2023/05/10 01:41:44;;;;;;;0.63;0.53;;;13.30;99.90;;;;;;4979085;28;20436;-79
2023/05/10 01:44:20;;;;;;;0.60;0.60;;;13.30;99.90;;;;;;4990467;28;20494;-78
2023/05/10 01:46:52;;;;;;;0.60;0.60;;;13.20;99.90;;;;;;4978828;28;20522;-79
2023/05/10 01:49:26;;;;;;;0.70;0.70;;;13.20;99.90;;;;;;4980352;28;20446;-79
2023/05/10 01:51:57;;;;;;;0.80;0.80;;;13.20;99.90;;;;;;4979071;28;20517;-79
2023/05/10 01:54:24;;;;;;;5.47;0.80;;;13.30;99.90;;;;;;4972655;28;20439;-78
2023/05/10 01:56:56;;;;;;;0.63;0.63;;;13.40;99.90;;;;;;4975969;28;20450;-78
2023/05/10 01:59:22;;;;;;;1.80;0.70;;;13.40;99.90;;;;;;4979342;28;20442;-78
2023/05/10 02:01:49;;;;;;;0.60;0.60;;;13.50;99.90;;;;;;4987166;28;20466;-79
2023/05/10 02:04:18;;;;;;;3.07;0.70;;;13.50;99.90;;;;;;4978472;28;20602;-78
2023/05/10 02:06:44;;;;;;;1.63;1.10;;;13.60;99.90;;;;;;4977466;28;20443;-79
2023/05/10 02:09:11;;;;;;;2.93;0.60;;;13.40;99.90;;;;;;4986906;28;20566;-79
2023/05/10 02:11:41;;;;;;;2.83;1.17;;;13.50;99.90;;;;;;4991754;28;20906;-79
2023/05/10 02:14:10;;;;;;;0.67;0.67;;;13.40;99.90;;;;;;4984259;28;20446;-78
2023/05/10 02:16:37;;;;;;;0.90;0.60;;;13.40;99.90;;;;;;4978766;28;20563;-78
2023/05/10 02:19:03;;;;;;;3.07;0.70;;;13.40;99.90;;;;;;4982830;28;20502;-78
2023/05/10 02:21:30;;;;;;;1.23;0.60;;;13.30;99.90;;;;;;4984765;28;20446;-79
2023/05/10 02:23:57;;;;;;;1.37;0.60;;;13.30;99.90;;;;;;4982486;28;20442;-79
2023/05/10 02:26:25;;;;;;;1.47;1.10;;;13.30;99.90;;;;;;4978149;28;20439;-78
2023/05/10 02:28:51;;;;;;;1.53;0.80;;;13.20;99.90;;;;;;4981145;28;20463;-78
2023/05/10 02:31:18;;;;;;;1.83;0.87;;;13.20;99.90;;;;;;4977170;28;20970;-78
2023/05/10 02:33:45;;;;;;;0.70;0.70;;;13.20;99.90;;;;;;4983079;28;20503;-79
2023/05/10 02:36:13;;;;;;;0.60;0.60;;;13.20;99.90;;;;;;4981609;28;20498;-78
2023/05/10 02:38:39;;;;;;;1.00;0.50;;;13.20;99.90;;;;;;4982068;28;20459;-79
2023/05/10 02:41:05;;;;;;;1.57;0.70;;;13.20;99.90;;;;;;4981890;28;20514;-78
2023/05/10 02:43:33;;;;;;;7.60;1.20;;;13.20;99.90;;;;;;4984220;28;20439;-79
2023/05/10 02:45:58;;;;;;;1.83;0.77;;;13.20;99.90;;;;;;4982844;28;20447;-79
2023/05/10 02:48:24;;;;;;;1.00;0.60;;;13.10;99.90;;;;;;4984303;28;20554;-78
2023/05/10 02:50:52;;;;;;;3.70;0.77;;;13.20;99.90;;;;;;4983617;28;20208;-79
2023/05/10 02:53:34;;;;;;;1.10;1.00;;;13.20;99.90;;;;;;4982081;28;20221;-78
2023/05/10 02:56:04;;;;;;;0.70;0.60;;;13.20;99.90;;;;;;4983927;28;20443;-78
2023/05/10 02:58:30;;;;;;;0.80;0.80;;;13.20;99.90;;;;;;4988346;28;20529;-78
2023/05/10 03:00:55;;;;;;;0.83;0.83;;;13.20;99.90;;;;;;4983413;28;20467;-79
2023/05/10 03:03:21;;;;;;;0.73;0.73;;;13.20;99.90;;;;;;4981694;28;20192;-78
2023/05/10 03:05:47;;;;;;;2.50;1.00;;;13.20;99.90;;;;;;4983777;28;20195;-78
2023/05/10 03:08:12;;;;;;;1.80;1.10;;;13.30;99.90;;;;;;4983468;28;20447;-79
2023/05/10 03:11:13;;;;;;;0.80;0.80;;;13.30;99.90;;;;;;4983607;28;20204;-78
2023/05/10 03:14:20;;;;;;;1.17;1.07;;;13.20;99.90;;;;;;4981064;28;20663;-79
2023/05/10 03:16:50;;;;;;;1.17;1.10;;;13.20;99.90;;;;;;4980086;28;20486;-78
2023/05/10 03:20:07;;;;;;;3.63;1.20;;;13.20;99.90;;;;;;4981179;28;20967;-78
2023/05/10 03:22:46;;;;;;;2.07;1.10;;;13.40;99.90;;;;;;4956024;28;20448;-78
2023/05/10 03:25:15;;;;;;;1.50;1.40;;;13.50;99.90;;;;;;4976499;28;20454;-78
2023/05/10 03:27:43;;;;;;;1.73;1.30;;;13.50;99.90;;;;;;4979498;28;20459;-78
2023/05/10 03:30:11;;;;;;;1.37;1.17;;;13.40;99.90;;;;;;4982662;28;20431;-78
2023/05/10 03:32:37;;;;;;;1.13;1.03;;;13.40;99.90;;;;;;4979214;28;20474;-78
2023/05/10 03:35:11;;;;;;;1.00;0.97;;;13.40;99.90;;;;;;4978229;28;20440;-78
2023/05/10 03:37:37;;;;;;;2.23;1.50;;;13.40;99.90;;;;;;4980119;28;20200;-78
2023/05/10 03:40:03;;;;;;;2.57;1.13;;;13.30;99.90;;;;;;4976300;28;20442;-78
2023/05/10 03:42:29;;;;;;;1.87;1.50;;;13.40;99.90;;;;;;4972699;28;20268;-78
2023/05/10 03:44:55;;;;;;;2.93;2.70;;;13.30;99.90;;;;;;4972931;28;20868;-78
2023/05/10 03:47:20;;;;;;;2.20;2.00;;;13.30;99.90;;;;;;4974200;28;20200;-79
2023/05/10 03:49:46;;;;;;;1.80;1.70;;;13.30;99.90;;;;;;4971830;28;20188;-78
2023/05/10 03:52:11;;;;;;;1.57;1.47;;;13.30;99.90;;;;;;4972438;28;20557;-78
2023/05/10 03:54:37;;;;;;;1.50;1.40;;;13.30;99.90;;;;;;4972598;28;20223;-78
2023/05/10 03:57:03;;;;;;;1.00;1.00;;;13.30;99.90;;;;;;4974883;28;20177;-77
2023/05/10 03:59:29;;;;;;;2.00;1.90;;;13.20;99.90;;;;;;4975789;28;20184;-79
2023/05/10 04:01:55;;;;;;;3.23;1.50;;;13.20;99.90;;;;;;4975165;28;20448;-77
2023/05/10 04:04:21;;;;;;;2.20;2.00;;;13.10;99.90;;;;;;4973369;28;20458;-77
2023/05/10 04:06:47;;;;;;;4.20;1.50;;;13.00;99.90;;;;;;4972981;28;20539;-77
2023/05/10 04:09:12;;;;;;;1.73;1.63;;;12.90;99.90;;;;;;4971502;28;20450;-78
2023/05/10 04:11:38;;;;;;;2.27;1.70;;;12.80;99.90;;;;;;4970718;28;20211;-78
2023/05/10 04:14:03;;;;;;;3.10;2.07;;;12.80;99.90;;;;;;4972246;28;20639;-78
2023/05/10 04:16:29;;;;;;;1.93;1.83;;;12.70;99.90;;;;;;4973347;28;20684;-79
2023/05/10 04:18:54;;;;;;;1.70;1.60;;;12.70;99.90;;;;;;4970770;28;20212;-78
2023/05/10 04:21:20;;;;;;;3.00;2.20;;;12.70;99.90;;;;;;4981015;28;20188;-79
2023/05/10 04:23:45;;;;;;;2.00;1.80;;;12.70;99.90;;;;;;4972977;28;20188;-79
2023/05/10 04:26:11;;;;;;;1.80;1.70;;;12.60;99.90;;;;;;4972815;28;20180;-79
2023/05/10 04:28:37;;;;;;;3.40;2.13;;;12.60;99.90;;;;;;4971071;28;20320;-78
2023/05/10 04:31:04;;;;;;;2.63;2.17;;;12.70;99.90;;;;;;4974624;28;20961;-78
2023/05/10 04:33:31;;;;;;;1.80;1.70;;;12.70;99.90;;;;;;4980962;28;20434;-78
2023/05/10 04:35:56;;;;;;;1.97;1.77;;;12.70;99.90;;;;;;4977022;28;20479;-78
2023/05/10 04:38:22;;;;;;;5.73;2.20;;;12.70;99.90;;;;;;4977190;28;20466;-78
2023/05/10 04:40:47;;;;;;;2.57;2.37;;;12.70;99.90;;;;;;4958790;28;20194;-78
2023/05/10 04:43:13;;;;;;;1.97;1.77;;;12.80;99.90;;;;;;4977213;28;20203;-78
2023/05/10 04:45:38;;;;;;;2.60;1.63;;;12.80;99.90;;;;;;4974778;28;20574;-78
2023/05/10 04:48:04;;;;;;;2.20;1.73;;;12.70;99.90;;;;;;4979814;28;20208;-79
2023/05/10 04:50:30;;;;;;;3.80;2.10;;;12.80;99.90;;;;;;4974754;28;20185;-78
2023/05/10 04:52:55;;;;;;;1.93;1.83;;;12.80;99.90;;;;;;4971073;28;20267;-78
2023/05/10 04:55:21;;;;;;;3.33;1.93;;;12.90;99.90;;;;;;4975419;28;20196;-79
2023/05/10 04:57:46;;;;;;;1.90;1.80;;;12.90;99.90;;;;;;4971754;28;20323;-78
2023/05/10 05:00:12;;;;;;;2.40;1.83;;;12.90;99.90;;;;;;4977959;28;20451;-78
2023/05/10 05:02:38;;;;;;;1.63;1.53;;;12.90;99.90;;;;;;4979069;28;20874;-78
2023/05/10 05:05:04;;;;;;;2.23;2.00;;;12.80;99.90;;;;;;4978180;28;20448;-79
2023/05/10 05:07:30;;;;;;;2.40;2.20;;;12.90;99.90;;;;;;4976504;28;20688;-78
2023/05/10 05:09:56;;;;;;;3.53;2.13;;;12.90;99.90;;;;;;4978467;28;20531;-78
2023/05/10 05:12:21;;;;;;;1.90;1.80;;;12.90;99.90;;;;;;4981925;28;20562;-78
2023/05/10 05:14:47;;;;;;;1.80;1.70;;;13.00;99.90;;;;;;4979943;28;20244;-78
2023/05/10 05:17:12;;;;;;;5.63;2.00;;;13.00;99.90;;;;;;4952979;28;20702;-78
2023/05/10 05:19:38;;;;;;;2.23;2.03;;;13.10;99.90;;;;;;4972562;28;20708;-78
2023/05/10 05:22:06;;;;;;;2.00;1.90;;;13.10;99.90;;;;;;4976636;28;20576;-78
2023/05/10 05:24:36;;;;;;;2.50;1.93;;;13.10;99.90;;;;;;4972127;28;20194;-78
2023/05/10 05:27:01;;;;;;;3.77;3.03;;;13.30;99.90;;;;;;4970126;28;20439;-77
2023/05/10 05:29:27;;;;;;;3.00;2.20;;;13.30;99.90;;;;;;4969930;28;20890;-79
2023/05/10 05:31:52;;;;;;;2.20;2.00;;;13.40;99.90;;;;;;4971962;28;20204;-79
2023/05/10 05:34:20;;;;;;;3.37;2.33;;;13.50;99.90;;;;;;4971308;28;20271;-80
2023/05/10 05:36:45;;;;;;;2.80;2.00;;;13.50;99.90;;;;;;4971903;28;20181;-78
2023/05/10 05:39:11;;;;;;;3.10;2.60;;;13.70;99.90;;;;;;4970687;28;20463;-80
2023/05/10 05:41:36;;;;;;;2.17;2.00;;;13.70;99.90;;;;;;4974457;28;20227;-80
2023/05/10 05:44:02;;;;;;;3.57;3.27;;;13.70;99.90;;;;;;4974047;28;20617;-79
2023/05/10 05:46:27;;;;;;;3.40;2.47;;;13.70;99.90;;;;;;4971606;28;20235;-80
2023/05/10 05:48:53;;;;;;;1.80;1.70;;;13.70;99.90;;;;;;4971525;28;20654;-79
2023/05/10 05:51:18;;;;;;;2.87;2.00;;;13.70;99.90;;;;;;4970172;28;20234;-78
2023/05/10 05:53:44;;;;;;;3.20;2.20;;;13.70;99.90;;;;;;4987320;28;20187;-79
2023/05/10 05:56:09;;;;;;;1.80;1.70;;;13.70;99.90;;;;;;4970472;28;20219;-79
2023/05/10 05:58:35;;;;;;;3.07;2.23;;;13.70;99.90;;;;;;4971247;28;20227;-80
2023/05/10 06:01:01;;;;;;;2.53;2.33;;;13.80;99.90;;;;;;4973348;28;20184;-80
2023/05/10 06:03:26;;;;;;;3.07;2.23;;;13.80;99.90;;;;;;4981641;28;20180;-79
2023/05/10 06:05:52;;;;;;;5.07;4.10;;;13.90;99.90;;;;;;4971914;28;20243;-75
2023/05/10 06:08:17;;;;;;;5.20;3.57;;;13.90;99.90;;;;;;4978669;28;20211;-78
2023/05/10 06:10:43;;;;;;;3.50;3.20;;;13.90;99.90;;;;;;4981295;28;20234;-78
2023/05/10 06:13:08;;;;;;;2.73;2.43;;;14.00;99.90;;;;;;4973834;28;20294;-77
2023/05/10 06:15:34;;;;;;;3.07;2.80;;;14.10;99.90;;;;;;4977776;28;20192;-78
2023/05/10 06:18:00;;;;;;;2.60;2.40;;;14.10;99.90;;;;;;4976863;28;20744;-80
2023/05/10 06:20:25;;;;;;;3.27;2.40;;;14.20;99.90;;;;;;4974789;28;20184;-78
2023/05/10 06:22:51;;;;;;;2.97;2.10;;;14.30;99.90;;;;;;4974086;28;20676;-77
2023/05/10 06:25:17;;;;;;;3.50;3.20;;;14.40;99.90;;;;;;4975786;28;20199;-78
2023/05/10 06:27:43;;;;;;;6.13;2.20;;;14.40;99.90;;;;;;4977620;28;20231;-80
2023/05/10 06:30:10;;;;;;;1.93;1.83;;;14.40;99.90;;;;;;4985393;28;20475;-79
2023/05/10 06:32:35;;;;;;;4.73;4.30;;;14.50;99.90;;;;;;4976719;28;20218;-80
2023/05/10 06:35:01;;;;;;;8.60;3.70;;;14.50;99.90;;;;;;4973131;28;20440;-80
2023/05/10 06:37:26;;;;;;;4.00;2.57;;;14.50;99.90;;;;;;4975346;28;20939;-80
2023/05/10 06:39:52;;;;;;;6.77;5.37;;;14.50;99.90;;;;;;4974076;28;20189;-80
2023/05/10 06:42:17;;;;;;;3.03;2.70;;;14.50;99.90;;;;;;4976100;28;20193;-79
2023/05/10 06:44:43;;;;;;;2.50;2.30;;;14.50;99.90;;;;;;4974829;28;20192;-80
2023/05/10 06:47:09;;;;;;;3.07;2.80;;;14.50;99.90;;;;;;4980271;28;20224;-81
2023/05/10 06:49:34;;;;;;;2.70;2.50;;;14.50;99.90;;;;;;4975987;28;20263;-80
2023/05/10 06:52:00;;;;;;;6.53;2.70;;;14.60;99.90;;;;;;4970544;28;20578;-80
2023/05/10 06:54:25;;;;;;;4.83;3.40;;;14.60;99.90;;;;;;4976692;28;20182;-81
2023/05/10 06:56:51;;;;;;;3.13;2.87;;;14.50;99.90;;;;;;4976923;28;20243;-80
2023/05/10 06:59:18;;;;;;;3.53;2.90;;;14.50;99.90;;;;;;4965660;28;20276;-81
2023/05/10 07:01:44;;;;;;;2.70;2.37;;;14.50;99.90;;;;;;4975695;28;20184;-80
2023/05/10 07:04:10;;;;;;;5.70;2.70;;;14.60;99.90;;;;;;4975223;28;20442;-81
2023/05/10 07:06:35;;;;;;;2.47;2.27;;;14.60;99.90;;;;;;4957202;28;20188;-80
2023/05/10 07:09:01;;;;;;;2.10;2.00;;;14.70;99.90;;;;;;4983299;28;20701;-80
2023/05/10 07:11:26;;;;;;;3.93;2.20;;;14.70;99.90;;;;;;4972909;28;20214;-80
2023/05/10 07:13:52;;;;;;;2.60;2.40;;;14.70;99.90;;;;;;4976515;28;20184;-80
2023/05/10 07:16:18;;;;;;;3.73;2.03;;;14.60;99.90;;;;;;4971748;28;20184;-80
2023/05/10 07:18:43;;;;;;;2.00;1.90;;;14.60;99.90;;;;;;4979518;28;20223;-81
2023/05/10 07:21:08;;;;;;;2.60;2.40;;;14.80;99.90;;;;;;4974748;28;20192;-79
2023/05/10 07:23:34;;;;;;;2.67;2.47;;;14.90;99.90;;;;;;4984930;28;20328;-80
2023/05/10 07:26:00;;;;;;;2.80;2.60;;;15.10;99.90;;;;;;4980047;28;20597;-80
2023/05/10 07:28:25;;;;;;;2.63;2.43;;;15.20;99.90;;;;;;4975180;28;20723;-80
2023/05/10 07:30:51;;;;;;;2.50;1.73;;;15.30;99.90;;;;;;4974602;28;20219;-80
2023/05/10 07:33:16;;;;;;;2.83;2.10;;;15.30;99.90;;;;;;4977880;28;20699;-80
2023/05/10 07:35:43;;;;;;;3.07;2.30;;;15.40;99.90;;;;;;4972581;28;20250;-80
2023/05/10 07:38:10;;;;;;;7.30;2.20;;;15.50;99.90;;;;;;4978526;28;20207;-78
2023/05/10 07:40:36;;;;;;;2.97;2.00;;;15.50;99.90;;;;;;4969752;28;20498;-79
2023/05/10 07:43:02;;;;;;;1.67;1.57;;;15.60;99.90;;;;;;4976964;28;20642;-80
2023/05/10 07:45:27;;;;;;;1.63;1.53;;;15.50;99.90;;;;;;4986962;28;20238;-80
2023/05/10 07:47:53;;;;;;;2.17;1.60;;;15.50;99.90;;;;;;4987499;28;20278;-80
2023/05/10 07:50:19;;;;;;;4.70;2.23;;;15.50;99.90;;;;;;4976031;28;20428;-80
2023/05/10 07:52:44;;;;;;;3.07;2.53;;;15.60;99.90;;;;;;4974374;28;20211;-80
2023/05/10 07:55:10;;;;;;;3.67;2.70;;;15.60;99.90;;;;;;4984692;28;20176;-80
2023/05/10 07:57:36;;;;;;;2.23;1.70;;;15.50;99.90;;;;;;4973469;28;20211;-79
2023/05/10 08:00:02;;;;;;;1.67;1.50;;;15.50;99.90;;;;;;4974934;28;20184;-80
2023/05/10 08:02:27;;;;;;;1.73;1.20;;;15.50;99.90;;;;;;4975305;28;20211;-81
2023/05/10 08:04:53;;;;;;;1.60;1.50;;;15.40;99.90;;;;;;4973578;28;20603;-77
2023/05/10 08:07:19;;;;;;;2.23;1.70;;;15.40;99.90;;;;;;4974503;28;20219;-80
2023/05/10 08:09:44;;;;;;;1.80;1.70;;;15.40;99.90;;;;;;4974104;28;20180;-80
2023/05/10 08:12:10;;;;;;;4.73;2.20;;;15.60;99.90;;;;;;4974590;28;20211;-81
2023/05/10 08:14:38;;;;;;;4.40;1.40;;;15.80;99.90;;;;;;4968151;28;20180;-78
2023/05/10 08:17:04;;;;;;;2.50;1.27;;;16.00;99.90;;;;;;4971651;28;20188;-79
2023/05/10 08:19:29;;;;;;;1.27;1.10;;;16.10;99.90;;;;;;4976410;28;20434;-78
2023/05/10 08:21:55;;;;;;;3.63;1.97;;;16.20;99.90;;;;;;4974223;28;20442;-80
2023/05/10 08:24:21;;;;;;;1.50;1.40;;;16.20;99.90;;;;;;4974046;28;20184;-80
2023/05/10 08:26:47;;;;;;;1.50;1.40;;;16.20;99.90;;;;;;4974810;28;20188;-80
2023/05/10 08:29:13;;;;;;;1.50;1.23;;;16.20;99.90;;;;;;4974588;28;20437;-80
2023/05/10 08:31:39;;;;;;;1.57;1.47;;;16.10;99.90;;;;;;4972084;28;20464;-79
2023/05/10 08:34:04;;;;;;;1.70;1.60;;;16.00;99.90;;;;;;4972737;28;20860;-80
2023/05/10 08:36:31;;;;;;;1.43;1.33;;;16.10;99.90;;;;;;4971588;28;20280;-80
2023/05/10 08:38:57;;;;;;;4.00;3.40;;;16.20;99.90;;;;;;4971027;28;20204;-80
2023/05/10 08:41:25;;;;;;;1.30;1.20;;;16.60;99.90;;;;;;4972931;28;20431;-80
2023/05/10 08:43:52;;;;;;;1.47;1.20;;;16.80;99.90;;;;;;4974159;28;20697;-81
2023/05/10 08:46:19;;;;;;;1.30;1.20;;;16.80;99.90;;;;;;4983141;28;20462;-80
2023/05/10 08:48:46;;;;;;;2.60;1.40;;;16.90;99.90;;;;;;4972637;28;20509;-80
2023/05/10 08:51:19;;;;;;;1.80;1.63;;;16.80;99.90;;;;;;4970198;28;20474;-80
2023/05/10 08:53:45;;;;;;;1.53;1.47;;;17.00;99.90;;;;;;4980987;28;20478;-80
2023/05/10 08:56:11;;;;;;;1.30;1.20;;;17.00;99.90;;;;;;4974601;28;20432;-80
2023/05/10 08:58:37;;;;;;;2.27;1.50;;;16.80;99.90;;;;;;4974094;28;20457;-80
2023/05/10 09:01:04;;;;;;;1.60;1.50;;;17.00;99.90;;;;;;4973872;28;20204;-80
2023/05/10 09:03:30;;;;;;;1.20;1.10;;;16.80;99.90;;;;;;4972260;28;21496;-79
2023/05/10 09:05:56;;;;;;;2.57;1.20;;;16.80;99.90;;;;;;4973548;28;20522;-80
2023/05/10 09:08:26;;;;;;;1.33;1.23;;;16.70;99.90;;;;;;4974205;28;20547;-80
2023/05/10 09:10:52;;;;;;;1.67;1.57;;;17.10;99.90;;;;;;4955868;28;20212;-78
2023/05/10 09:13:19;;;;;;;1.93;1.47;;;17.20;99.90;;;;;;4971802;28;20436;-80
2023/05/10 09:15:45;;;;;;;1.10;1.10;;;17.40;99.90;;;;;;4968297;28;20505;-79
2023/05/10 09:18:11;;;;;;;1.53;0.90;;;17.70;99.90;;;;;;4969378;28;20570;-79
2023/05/10 09:20:37;;;;;;;2.80;1.10;;;17.40;99.90;;;;;;4970808;28;20436;-80
2023/05/10 09:23:02;;;;;;;1.60;1.00;;;17.10;99.90;;;;;;4976676;28;20435;-80
2023/05/10 09:25:28;;;;;;;0.80;0.80;;;16.80;99.90;;;;;;4973596;28;20180;-79
2023/05/10 09:27:54;;;;;;;1.40;0.90;;;16.50;99.90;;;;;;4971553;28;20196;-78
2023/05/10 09:30:28;;;;;;;1.33;1.23;;;16.40;99.90;;;;;;4972357;28;20177;-79
2023/05/10 09:32:54;;;;;;;1.40;1.30;;;16.30;99.90;;;;;;4971577;28;20507;-77
2023/05/10 09:35:22;;;;;;;1.17;1.07;;;16.30;99.90;;;;;;4971105;28;20526;-77
2023/05/10 09:37:51;;;;;;;1.20;1.10;;;16.30;99.90;;;;;;4970578;28;20474;-78
2023/05/10 09:40:18;;;;;;;4.43;1.60;;;16.50;99.90;;;;;;4973818;28;20442;-78
2023/05/10 09:43:00;;;;;;;1.27;1.17;;;16.90;99.90;;;;;;4975289;28;20435;-78
2023/05/10 09:45:31;;;;;;;1.30;1.20;;;17.40;99.90;;;;;;4972354;28;20837;-78
2023/05/10 09:47:58;;;;;;;2.97;1.07;;;17.80;99.90;;;;;;4974786;28;20455;-78
2023/05/10 09:50:24;;;;;;;1.10;1.00;;;18.10;99.90;;;;;;4956681;28;20467;-77
2023/05/10 09:53:00;;;;;;;2.07;1.17;;;18.10;99.90;;;;;;4974069;28;20501;-78
2023/05/10 09:55:45;;;;;;;1.27;0.90;;;18.00;99.90;;;;;;4971605;28;20854;-78
2023/05/10 09:58:12;;;;;;;2.70;1.23;;;18.20;99.90;;;;;;4973382;28;20482;-78
2023/05/10 10:00:39;;;;;;;0.90;0.90;;;18.00;99.90;;;;;;4974420;28;20436;-78
2023/05/10 10:03:06;;;;;;;1.00;0.70;;;17.90;99.90;;;;;;4974121;28;20435;-78
2023/05/10 10:05:34;;;;;;;2.10;1.03;;;18.00;99.90;;;;;;4968975;28;20852;-78
2023/05/10 10:08:00;;;;;;;4.20;1.10;;;18.10;99.90;;;;;;4970577;28;20447;-77
2023/05/10 10:10:27;;;;;;;0.97;0.97;;;18.50;99.90;;;;;;4974004;28;20486;-78
2023/05/10 10:12:54;;;;;;;1.97;1.13;;;18.70;99.90;;;;;;4974077;28;20824;-78
2023/05/10 10:15:21;;;;;;;4.23;0.80;;;18.60;99.90;;;;;;4970519;28;20463;-78
2023/05/10 10:17:47;;;;;;;1.03;0.93;;;18.30;99.90;;;;;;4969846;28;20533;-78
2023/05/10 10:20:14;;;;;;;1.57;1.20;;;18.20;99.90;;;;;;4972965;28;20503;-78
2023/05/10 10:22:39;;;;;;;1.20;1.10;;;18.00;99.90;;;;;;4973760;28;20444;-78
2023/05/10 10:25:05;;;;;;;2.83;2.63;;;17.90;99.90;;;;;;4973832;28;20443;-77
2023/05/10 10:27:56;;;;;;;2.03;1.20;;;18.00;99.90;;;;;;4973033;28;20227;-76
2023/05/10 10:30:45;;;;;;;1.60;0.90;;;18.30;99.90;;;;;;4966004;28;20443;-78
2023/05/10 10:33:29;;;;;;;1.23;1.13;;;18.90;99.90;;;;;;4973615;28;20446;-78
2023/05/10 10:35:59;;;;;;;1.40;0.97;;;19.60;99.90;;;;;;4970549;28;20423;-78
2023/05/10 10:38:24;;;;;;;4.40;1.33;;;19.60;99.90;;;;;;4973505;28;20538;-78
2023/05/10 10:41:02;;;;;;;1.67;1.33;;;20.30;99.90;;;;;;4969963;28;20912;-76
2023/05/10 10:43:29;;;;;;;1.03;1.00;;;20.00;99.90;;;;;;4970296;28;20188;-78
2023/05/10 10:46:17;;;;;;;3.70;1.13;;;20.60;99.90;;;;;;4973184;28;20439;-77
2023/05/10 10:49:07;;;;;;;2.83;1.10;;;21.20;99.90;;;;;;4973671;28;20521;-78
2023/05/10 10:51:36;;;;;;;1.00;1.00;;;20.70;99.90;;;;;;4971676;28;20514;-79
2023/05/10 10:54:10;;;;;;;1.23;1.13;;;20.00;99.90;;;;;;4974989;28;20451;-78
2023/05/10 10:56:35;;;;;;;1.10;0.90;;;19.60;99.90;;;;;;4969700;28;20453;-78
2023/05/10 10:59:01;;;;;;;0.97;0.87;;;18.80;99.90;;;;;;4975369;28;20455;-78
2023/05/10 11:01:36;;;;;;;1.10;1.00;;;18.30;99.90;;;;;;4972866;28;20176;-78
2023/05/10 11:04:05;;;;;;;1.10;1.00;;;17.80;99.90;;;;;;4974591;28;20183;-78
2023/05/10 11:06:34;;;;;;;2.40;1.17;;;18.00;99.90;;;;;;4975264;28;20443;-78
2023/05/10 11:09:06;;;;;;;1.63;1.53;;;17.80;99.90;;;;;;4975304;28;20451;-78
2023/05/10 11:11:31;;;;;;;1.23;1.13;;;17.80;99.90;;;;;;4973565;28;20471;-76
2023/05/10 11:14:04;;;;;;;1.40;1.00;;;18.80;99.90;;;;;;4974151;28;20448;-78
2023/05/10 11:16:43;;;;;;;3.50;1.00;;;18.80;99.90;;;;;;4971957;28;20563;-77
2023/05/10 11:19:11;;;;;;;2.40;1.20;;;18.90;99.90;;;;;;4974423;28;20463;-76
2023/05/10 11:21:51;;;;;;;1.50;1.33;;;18.30;99.90;;;;;;4969596;28;20475;-76
2023/05/10 11:24:19;;;;;;;1.13;0.90;;;17.90;99.90;;;;;;4972678;28;20882;-76
2023/05/10 11:26:45;;;;;;;1.33;1.23;;;17.30;99.90;;;;;;4973221;28;20561;-76
2023/05/10 11:29:13;;;;;;;1.10;1.00;;;17.00;99.90;;;;;;4973569;28;21012;-77
2023/05/10 11:31:46;;;;;;;1.10;1.10;;;17.10;99.90;;;;;;4971988;28;20240;-76
2023/05/10 11:34:22;;;;;;;2.03;0.80;;;17.00;99.90;;;;;;4955999;28;20432;-76
2023/05/10 11:36:53;;;;;;;0.90;0.90;;;16.70;99.90;;;;;;4972837;28;20457;-76
2023/05/10 11:39:19;;;;;;;4.40;0.90;;;16.80;99.90;;;;;;4970995;28;20443;-76
2023/05/10 11:41:48;;;;;;;1.30;1.20;;;16.90;99.90;;;;;;4971973;28;20431;-76
2023/05/10 11:44:13;;;;;;;2.07;1.10;;;17.00;99.90;;;;;;4973091;28;20184;-76
2023/05/10 11:46:39;;;;;;;4.07;1.90;;;17.10;99.90;;;;;;4972885;28;20449;-77
2023/05/10 11:49:07;;;;;;;1.53;1.00;;;17.30;99.90;;;;;;4973188;28;20697;-76
2023/05/10 11:51:36;;;;;;;1.10;1.10;;;17.20;99.90;;;;;;4972934;28;20208;-76
2023/05/10 11:54:09;;;;;;;1.47;1.37;;;16.90;99.90;;;;;;4973973;28;20434;-73
2023/05/10 11:56:36;;;;;;;1.07;1.07;;;16.70;99.90;;;;;;4971379;28;20440;-76
2023/05/10 11:59:02;;;;;;;1.43;1.10;;;16.80;99.90;;;;;;4965637;28;20460;-75
2023/05/10 12:01:28;;;;;;;2.07;1.13;;;17.10;99.90;;;;;;4971791;28;20961;-69
2023/05/10 12:03:58;;;;;;;1.30;1.20;;;17.70;99.90;;;;;;4973902;28;20436;-79
2023/05/10 12:06:27;;;;;;;1.30;1.20;;;17.80;99.90;;;;;;4974225;28;20443;-76
2023/05/10 12:08:53;;;;;;;2.10;1.20;;;18.10;99.90;;;;;;4969643;28;20477;-74
2023/05/10 12:11:20;;;;;;;3.17;1.10;;;18.60;99.90;;;;;;4970862;28;20459;-74
2023/05/10 12:13:46;;;;;;;1.33;1.23;;;19.40;99.90;;;;;;4972255;28;20438;-73
2023/05/10 12:16:23;;;;;;;2.20;1.30;;;20.30;99.90;;;;;;4972551;28;20822;-73
2023/05/10 12:18:50;;;;;;;2.40;1.40;;;20.20;99.90;;;;;;4968984;28;20534;-75
2023/05/10 12:21:16;;;;;;;1.03;1.00;;;19.70;99.90;;;;;;4972785;28;20450;-73
2023/05/10 12:23:44;;;;;;;4.40;1.60;;;19.00;99.90;;;;;;4970844;28;20439;-73
2023/05/10 12:26:10;;;;;;;1.97;1.40;;;18.50;99.90;;;;;;4973537;28;20451;-73
2023/05/10 12:28:37;;;;;;;1.60;1.30;;;18.50;99.90;;;;;;4952971;28;20545;-74
2023/05/10 12:31:03;;;;;;;1.60;1.30;;;18.50;99.90;;;;;;4974174;28;20464;-74
2023/05/10 12:33:39;;;;;;;2.80;1.50;;;18.50;99.90;;;;;;4973043;28;20865;-73
2023/05/10 12:36:06;;;;;;;2.40;1.20;;;18.90;99.90;;;;;;4970144;28;20259;-75
2023/05/10 12:38:48;;;;;;;1.20;1.10;;;18.70;99.90;;;;;;4971967;28;21039;-74
2023/05/10 12:41:16;;;;;;;1.93;1.43;;;18.40;99.90;;;;;;4971917;28;21000;-74
2023/05/10 12:43:42;;;;;;;2.00;1.30;;;18.00;99.90;;;;;;4968746;28;20517;-74
2023/05/10 12:46:09;;;;;;;1.17;1.07;;;17.60;99.90;;;;;;4970489;28;20448;-73
2023/05/10 12:48:35;;;;;;;1.80;1.47;;;17.40;99.90;;;;;;4971269;28;20212;-74
2023/05/10 12:51:01;;;;;;;3.90;1.40;;;17.30;99.90;;;;;;4971033;28;20495;-74
2023/05/10 12:53:27;;;;;;;3.30;1.53;;;17.10;99.90;;;;;;4970900;28;20439;-74